createdAt,value
2023-03-21T00:02:19.088Z,101143.13
2023-03-21T00:05:15.487Z,101142.31
2023-03-21T00:08:04.162Z,101142.25
2023-03-21T00:10:57.399Z,101141.19
2023-03-21T00:13:45.215Z,101143.31
2023-03-21T00:16:36.193Z,101142.50
2023-03-21T00:19:26.681Z,101131.88
2023-03-21T00:22:14.470Z,101136.44
2023-03-21T00:25:02.747Z,101136.19
2023-03-21T00:28:05.341Z,101138.88
2023-03-21T00:31:06.052Z,101134.78
2023-03-21T00:34:07.932Z,101138.09
2023-03-21T00:36:55.754Z,101135.44
2023-03-21T00:39:44.796Z,101134.75
2023-03-21T00:42:33.127Z,101129.09
2023-03-21T00:45:22.209Z,101128.59
2023-03-21T00:48:09.790Z,101131.38
2023-03-21T00:50:59.451Z,101127.66
2023-03-21T00:53:46.074Z,101126.22
2023-03-21T00:56:32.820Z,101119.22
2023-03-21T00:59:21.161Z,101123.72
2023-03-21T01:02:07.918Z,101117.63
2023-03-21T01:04:54.898Z,101111.75
2023-03-21T01:07:41.420Z,101113.56
2023-03-21T01:10:28.255Z,101111.84
2023-03-21T01:13:17.074Z,101084.59
2023-03-21T01:16:06.743Z,101108.19
2023-03-21T01:18:53.244Z,101108.22
2023-03-21T01:21:40.602Z,101107.53
2023-03-21T01:24:27.343Z,101105.81
2023-03-21T01:27:13.984Z,101107.53
2023-03-21T01:30:00.800Z,101108.44
2023-03-21T01:32:49.267Z,101113.84
2023-03-21T01:35:49.248Z,101107.50
2023-03-21T01:38:38.491Z,101114.66
2023-03-21T01:41:41.891Z,101113.56
2023-03-21T01:44:55.608Z,101112.97
2023-03-21T01:47:42.955Z,101118.19
2023-03-21T01:50:52.948Z,101110.81
2023-03-21T01:53:43.636Z,101106.78
2023-03-21T01:56:34.312Z,101117.28
2023-03-21T01:59:30.404Z,101118.31
2023-03-21T02:02:37.616Z,101116.69
2023-03-21T02:05:53.447Z,101108.84
2023-03-21T02:08:41.249Z,101113.28
2023-03-21T02:11:33.372Z,101114.09
2023-03-21T02:14:29.095Z,101114.16
2023-03-21T02:17:35.631Z,101106.19
2023-03-21T02:21:05.805Z,101102.91
2023-03-21T02:24:25.343Z,101102.78
2023-03-21T02:27:16.251Z,101106.34
2023-03-21T02:30:52.051Z,101104.44
2023-03-21T02:34:13.030Z,101104.72
2023-03-21T02:37:17.136Z,101100.31
2023-03-21T02:40:11.579Z,101106.53
2023-03-21T02:43:09.354Z,101097.75
2023-03-21T02:46:10.675Z,101100.44
2023-03-21T02:49:04.262Z,101108.28
2023-03-21T02:51:52.103Z,101108.34
2023-03-21T02:54:48.266Z,101111.81
2023-03-21T02:57:43.136Z,101109.09
2023-03-21T03:00:34.528Z,101113.59
2023-03-21T03:03:33.382Z,101106.50
2023-03-21T03:06:27.184Z,101110.16
2023-03-21T03:09:27.394Z,101112.88
2023-03-21T03:12:26.178Z,101111.09
2023-03-21T03:15:23.697Z,101115.38
2023-03-21T03:18:17.557Z,101114.63
2023-03-21T03:21:11.929Z,101114.66
2023-03-21T03:24:02.781Z,101119.16
2023-03-21T03:26:55.348Z,101110.31
2023-03-21T03:29:48.226Z,101115.59
2023-03-21T03:32:44.900Z,101117.34
2023-03-21T03:35:32.110Z,101116.50
2023-03-21T03:38:22.138Z,101119.22
2023-03-21T03:41:19.139Z,101119.09
2023-03-21T03:44:10.993Z,101119.78
2023-03-21T03:47:07.632Z,101119.00
2023-03-21T03:50:03.886Z,101117.13
2023-03-21T03:52:59.921Z,101121.59
2023-03-21T03:55:52.412Z,101119.84
2023-03-21T03:58:45.718Z,101121.66
2023-03-21T04:01:35.545Z,101115.44
2023-03-21T04:04:28.766Z,101112.06
2023-03-21T04:07:16.541Z,101119.16
2023-03-21T04:10:03.589Z,101116.44
2023-03-21T04:12:53.357Z,101118.09
2023-03-21T04:16:19.420Z,101116.00
2023-03-21T04:19:06.897Z,101111.03
2023-03-21T04:21:55.031Z,101109.22
2023-03-21T04:24:42.788Z,101107.69
2023-03-21T04:27:30.521Z,101110.13
2023-03-21T04:30:26.074Z,101113.38
2023-03-21T04:33:21.965Z,101111.47
2023-03-21T04:36:24.840Z,101111.75
2023-03-21T04:39:15.027Z,101116.94
2023-03-21T04:42:04.712Z,101110.97
2023-03-21T04:44:52.046Z,101116.28
2023-03-21T04:47:39.109Z,101116.41
2023-03-21T04:50:25.826Z,101114.41
2023-03-21T04:53:12.735Z,101113.63
2023-03-21T04:56:01.080Z,101109.78
2023-03-21T04:58:47.935Z,101116.31
2023-03-21T05:01:34.687Z,101123.72
2023-03-21T05:04:23.857Z,101116.94
2023-03-21T05:07:10.871Z,101119.44
2023-03-21T05:09:57.741Z,101122.06
2023-03-21T05:12:45.959Z,101122.75
2023-03-21T05:15:32.815Z,101125.25
2023-03-21T05:18:24.933Z,101126.31
2023-03-21T05:21:34.285Z,101123.78
2023-03-21T05:24:23.014Z,101124.88
2023-03-21T05:27:14.301Z,101126.44
2023-03-21T05:30:10.403Z,101128.19
2023-03-21T05:32:57.856Z,101123.56
2023-03-21T05:35:44.582Z,101120.03
2023-03-21T05:38:32.682Z,101128.00
2023-03-21T05:41:21.448Z,101123.56
2023-03-21T05:44:08.514Z,101111.16
2023-03-21T05:46:58.577Z,101120.94
2023-03-21T05:49:54.659Z,101116.47
2023-03-21T05:52:42.525Z,101122.63
2023-03-21T05:55:33.231Z,101114.56
2023-03-21T05:58:20.007Z,101114.31
2023-03-21T06:01:10.481Z,101114.06
2023-03-21T06:04:02.188Z,101120.63
2023-03-21T06:06:51.001Z,101120.47
2023-03-21T06:09:37.920Z,101117.41
2023-03-21T06:12:24.908Z,101119.44
2023-03-21T06:15:37.549Z,101120.28
2023-03-21T06:18:31.267Z,101119.81
2023-03-21T06:21:33.973Z,101121.19
2023-03-21T06:24:20.941Z,101112.59
2023-03-21T06:27:08.184Z,101117.84
2023-03-21T06:30:09.329Z,101088.97
2023-03-21T06:33:05.061Z,101124.03
2023-03-21T06:35:54.067Z,101127.50
2023-03-21T06:38:42.865Z,101125.66
2023-03-21T06:41:29.785Z,101131.88
2023-03-21T06:44:22.171Z,101135.81
2023-03-21T06:47:16.954Z,101127.59
2023-03-21T06:50:07.484Z,101133.44
2023-03-21T06:53:00.152Z,101137.28
2023-03-21T06:55:52.531Z,101146.75
2023-03-21T06:58:40.482Z,101140.34
2023-03-21T07:01:33.537Z,101142.75
2023-03-21T07:04:25.054Z,101142.84
2023-03-21T07:07:12.444Z,101149.84
2023-03-21T07:09:59.283Z,101142.22
2023-03-21T07:12:51.278Z,101142.50
2023-03-21T07:15:51.564Z,101145.69
2023-03-21T07:18:38.449Z,101145.31
2023-03-21T07:21:24.983Z,101149.16
2023-03-21T07:24:12.785Z,101140.44
2023-03-21T07:26:59.615Z,101146.38
2023-03-21T07:29:47.803Z,101148.75
2023-03-21T07:32:35.581Z,101137.41
2023-03-21T07:35:22.841Z,101152.13
2023-03-21T07:38:09.573Z,101085.47
2023-03-21T07:40:56.261Z,101145.94
2023-03-21T07:43:43.348Z,101153.09
2023-03-21T07:46:31.547Z,101155.41
2023-03-21T07:49:18.360Z,101150.63
2023-03-21T07:52:05.615Z,101150.72
2023-03-21T07:54:52.711Z,101153.03
2023-03-21T07:57:39.124Z,101145.47
2023-03-21T08:00:26.312Z,101142.22
2023-03-21T08:03:14.530Z,101144.25
2023-03-21T08:06:01.807Z,101142.03
2023-03-21T08:08:48.596Z,101146.00
2023-03-21T08:11:35.197Z,101144.25
2023-03-21T08:14:21.998Z,101146.66
2023-03-21T08:17:09.647Z,101140.53
2023-03-21T08:19:58.005Z,101143.91
2023-03-21T08:22:45.133Z,101149.28
2023-03-21T08:25:32.238Z,101150.50
2023-03-21T08:28:18.957Z,101150.03
2023-03-21T08:31:09.022Z,101147.88
2023-03-21T08:33:56.153Z,101149.31
2023-03-21T08:36:44.356Z,101154.88
2023-03-21T08:39:31.206Z,101149.03
2023-03-21T08:42:17.988Z,101146.63
2023-03-21T08:45:05.407Z,101152.59
2023-03-21T08:47:52.504Z,101144.69
2023-03-21T08:50:39.341Z,101150.19
2023-03-21T08:53:27.816Z,101148.75
2023-03-21T08:56:14.553Z,101147.47
2023-03-21T08:59:03.429Z,101149.22
2023-03-21T09:01:50.347Z,101149.03
2023-03-21T09:04:37.505Z,101147.22
2023-03-21T09:07:25.617Z,101146.72
2023-03-21T09:10:21.931Z,101152.75
2023-03-21T09:13:09.046Z,101147.59
2023-03-21T09:15:58.268Z,101149.59
2023-03-21T09:18:49.643Z,101154.91
2023-03-21T09:21:38.337Z,101151.97
2023-03-21T09:24:26.481Z,101157.53
2023-03-21T09:27:15.874Z,101154.84
2023-03-21T09:30:02.656Z,101149.06
2023-03-21T09:32:50.553Z,101146.03
2023-03-21T09:35:37.712Z,101150.75
2023-03-21T09:38:30.471Z,101147.06
2023-03-21T09:41:33.878Z,101146.22
2023-03-21T09:44:40.742Z,101150.56
2023-03-21T09:47:34.906Z,101154.28
2023-03-21T09:50:27.494Z,101152.16
2023-03-21T09:53:21.891Z,101152.22
2023-03-21T09:56:13.985Z,101141.69
2023-03-21T09:59:03.220Z,101140.41
2023-03-21T10:01:51.646Z,101143.75
2023-03-21T10:04:38.581Z,101136.88
2023-03-21T10:07:25.286Z,101136.44
2023-03-21T10:10:18.648Z,101138.03
2023-03-21T10:13:07.894Z,101138.22
2023-03-21T10:15:58.146Z,101136.91
2023-03-21T10:18:47.562Z,101126.56
2023-03-21T10:21:59.033Z,101131.69
2023-03-21T10:24:43.450Z,101119.09
2023-03-21T10:27:31.598Z,101120.66
2023-03-21T10:30:27.433Z,101116.66
2023-03-21T10:33:16.647Z,101112.84
2023-03-21T10:36:08.845Z,101109.44
2023-03-21T10:38:57.507Z,101120.53
2023-03-21T10:41:44.653Z,101109.59
2023-03-21T10:44:33.029Z,101110.56
2023-03-21T10:47:26.598Z,101112.38
2023-03-21T10:50:16.848Z,101115.78
2023-03-21T10:53:18.966Z,101110.34
2023-03-21T10:56:10.088Z,101106.88
2023-03-21T10:58:59.357Z,101104.56
2023-03-21T11:01:50.107Z,101095.72
2023-03-21T11:04:38.490Z,101098.47
2023-03-21T11:07:31.183Z,101100.47
2023-03-21T11:10:29.764Z,101094.88
2023-03-21T11:13:20.132Z,101095.69
2023-03-21T11:16:09.438Z,101064.25
2023-03-21T11:19:01.746Z,101094.13
2023-03-21T11:21:48.460Z,101088.31
2023-03-21T11:24:36.746Z,101087.13
2023-03-21T11:27:29.444Z,101094.75
2023-03-21T11:30:22.571Z,101092.72
2023-03-21T11:33:09.621Z,101090.00
2023-03-21T11:36:01.470Z,101077.81
2023-03-21T11:38:52.758Z,101076.22
2023-03-21T11:41:42.085Z,101072.53
2023-03-21T11:44:32.761Z,101075.25
2023-03-21T11:47:19.184Z,101070.16
2023-03-21T11:50:17.852Z,101066.16
2023-03-21T11:53:18.542Z,101063.63
2023-03-21T11:56:22.312Z,101064.13
2023-03-21T11:59:34.306Z,101055.03
2023-03-21T12:02:55.117Z,101054.25
2023-03-21T12:05:48.627Z,101051.44
2023-03-21T12:08:46.443Z,101049.72
2023-03-21T12:11:41.065Z,101048.00
2023-03-21T12:14:35.671Z,101045.47
2023-03-21T12:17:37.411Z,101044.09
2023-03-21T12:20:32.340Z,101049.69
2023-03-21T12:23:43.284Z,101041.81
2023-03-21T12:26:32.187Z,101038.91
2023-03-21T12:29:50.612Z,101044.47
2023-03-21T12:32:50.669Z,101029.25
2023-03-21T12:35:51.079Z,101030.31
2023-03-21T12:38:44.578Z,101028.06
2023-03-21T12:41:35.810Z,100964.84
2023-03-21T12:44:26.735Z,101016.97
2023-03-21T12:47:18.501Z,101015.25
2023-03-21T12:50:08.058Z,101009.72
2023-03-21T12:52:59.092Z,101006.97
2023-03-21T12:55:46.514Z,101006.19
2023-03-21T12:58:49.178Z,100999.13
2023-03-21T13:01:42.590Z,101003.91
2023-03-21T13:04:46.808Z,100997.44
2023-03-21T13:07:38.982Z,101000.41
2023-03-21T13:10:27.574Z,100998.59
2023-03-21T13:13:22.174Z,100989.38
2023-03-21T13:16:14.452Z,100976.31
2023-03-21T13:19:11.936Z,100963.28
2023-03-21T13:22:07.573Z,100975.13
2023-03-21T13:24:59.967Z,100972.44
2023-03-21T13:27:53.014Z,100966.31
2023-03-21T13:30:39.793Z,100966.38
2023-03-21T13:33:31.730Z,100963.78
2023-03-21T13:36:25.790Z,100951.31
2023-03-21T13:39:20.919Z,100957.31
2023-03-21T13:42:21.674Z,100958.19
2023-03-21T13:45:13.056Z,100960.50
2023-03-21T13:48:01.655Z,100949.97
2023-03-21T13:50:54.815Z,100947.09
2023-03-21T13:53:43.870Z,100947.06
2023-03-21T13:56:50.952Z,100940.38
2023-03-21T13:59:41.399Z,100946.28
2023-03-21T14:02:32.966Z,100946.63
2023-03-21T14:05:22.781Z,100933.88
2023-03-21T14:08:24.849Z,100936.47
2023-03-21T14:11:18.176Z,100928.78
2023-03-21T14:14:07.126Z,100934.25
2023-03-21T14:16:54.784Z,100927.84
2023-03-21T14:19:41.209Z,100918.38
2023-03-21T14:22:28.776Z,100924.16
2023-03-21T14:25:18.450Z,100919.19
2023-03-21T14:28:09.263Z,100918.03
2023-03-21T14:31:00.210Z,100918.97
2023-03-21T14:33:51.906Z,100913.13
2023-03-21T14:36:43.101Z,100915.06
2023-03-21T14:39:34.154Z,100909.19
2023-03-21T14:42:28.344Z,100907.59
2023-03-21T14:45:22.179Z,100903.41
2023-03-21T14:48:16.820Z,100900.88
2023-03-21T14:51:06.082Z,100894.22
2023-03-21T14:53:54.176Z,100888.56
2023-03-21T14:56:41.433Z,100883.88
2023-03-21T14:59:33.379Z,100880.50
2023-03-21T15:02:23.875Z,100879.47
2023-03-21T15:05:20.040Z,100876.59
2023-03-21T15:08:09.831Z,100873.31
2023-03-21T15:11:06.834Z,100874.41
2023-03-21T15:13:56.628Z,100865.25
2023-03-21T15:16:43.435Z,100860.34
2023-03-21T15:19:33.185Z,100853.59
2023-03-21T15:22:34.732Z,100859.22
2023-03-21T15:25:27.130Z,100856.19
2023-03-21T15:28:14.929Z,100859.22
2023-03-21T15:31:02.048Z,100856.78
2023-03-21T15:33:49.623Z,100849.63
2023-03-21T15:36:44.066Z,100846.00
2023-03-21T15:39:32.204Z,100841.84
2023-03-21T15:42:28.623Z,100848.97
2023-03-21T15:45:21.419Z,100850.09
2023-03-21T15:48:10.384Z,100847.28
2023-03-21T15:51:01.120Z,100846.50
2023-03-21T15:53:48.249Z,100844.50
2023-03-21T15:56:37.289Z,100841.97
2023-03-21T15:59:28.057Z,100849.84
2023-03-21T16:02:19.756Z,100841.47
2023-03-21T16:05:23.662Z,100835.16
2023-03-21T16:08:20.709Z,100840.28
2023-03-21T16:11:09.851Z,100833.13
2023-03-21T16:13:58.041Z,100831.41
2023-03-21T16:16:44.966Z,100820.94
2023-03-21T16:19:31.916Z,100821.81
2023-03-21T16:22:19.977Z,100822.38
2023-03-21T16:25:07.290Z,100823.78
2023-03-21T16:27:53.820Z,100820.28
2023-03-21T16:30:41.936Z,100816.13
2023-03-21T16:33:28.759Z,100821.00
2023-03-21T16:36:17.992Z,100795.00
2023-03-21T16:39:16.923Z,100824.69
2023-03-21T16:42:03.657Z,100824.19
2023-03-21T16:44:50.478Z,100823.00
2023-03-21T16:47:38.728Z,100833.19
2023-03-21T16:50:29.681Z,100818.53
2023-03-21T16:53:17.210Z,100822.63
2023-03-21T16:56:05.357Z,100823.63
2023-03-21T16:58:52.957Z,100820.66
2023-03-21T17:01:41.556Z,100815.34
2023-03-21T17:04:29.818Z,100815.34
2023-03-21T17:07:16.640Z,100815.22
2023-03-21T17:10:03.268Z,100811.75
2023-03-21T17:12:50.268Z,100815.41
2023-03-21T17:15:36.746Z,100817.16
2023-03-21T17:18:23.758Z,100811.09
2023-03-21T17:21:16.041Z,100811.16
2023-03-21T17:24:02.809Z,100802.53
2023-03-21T17:26:49.543Z,100810.00
2023-03-21T17:29:36.320Z,100808.25
2023-03-21T17:32:23.114Z,100802.00
2023-03-21T17:35:10.689Z,100807.53
2023-03-21T17:37:59.480Z,100801.06
2023-03-21T17:40:46.380Z,100798.03
2023-03-21T17:43:33.304Z,100797.22
2023-03-21T17:46:22.373Z,100797.44
2023-03-21T17:49:13.679Z,100796.28
2023-03-21T17:52:00.530Z,100801.63
2023-03-21T17:54:48.714Z,100802.84
2023-03-21T17:57:36.455Z,100795.16
2023-03-21T18:00:25.781Z,100790.53
2023-03-21T18:03:13.469Z,100790.38
2023-03-21T18:06:00.089Z,100785.00
2023-03-21T18:08:48.263Z,100778.59
2023-03-21T18:11:36.541Z,100784.72
2023-03-21T18:14:27.897Z,100782.41
2023-03-21T18:17:18.544Z,100788.50
2023-03-21T18:20:09.861Z,100780.91
2023-03-21T18:22:57.172Z,100791.47
2023-03-21T18:25:43.807Z,100783.63
2023-03-21T18:28:32.276Z,100789.25
2023-03-21T18:31:21.564Z,100785.50
2023-03-21T18:34:08.705Z,100780.91
2023-03-21T18:36:56.203Z,100784.50
2023-03-21T18:39:44.516Z,100778.94
2023-03-21T18:42:31.588Z,100781.41
2023-03-21T18:45:21.135Z,100776.66
2023-03-21T18:48:08.368Z,100778.19
2023-03-21T18:50:54.940Z,100779.00
2023-03-21T18:53:41.580Z,100774.84
2023-03-21T18:57:19.673Z,100778.59
2023-03-21T18:59:36.341Z,100776.00
2023-03-21T19:02:24.214Z,100777.13
2023-03-21T19:05:11.629Z,100774.00
2023-03-21T19:07:58.252Z,100773.69
2023-03-21T19:10:46.184Z,100772.06
2023-03-21T19:13:32.979Z,100775.84
2023-03-21T19:16:20.368Z,100773.13
2023-03-21T19:19:11.398Z,100777.91
2023-03-21T19:21:58.077Z,100776.59
2023-03-21T19:24:44.985Z,100729.88
2023-03-21T19:27:31.809Z,100776.44
2023-03-21T19:30:19.581Z,100773.00
2023-03-21T19:33:06.478Z,100778.38
2023-03-21T19:36:10.653Z,100774.84
2023-03-21T19:38:59.635Z,100778.59
2023-03-21T19:41:47.983Z,100789.09
2023-03-21T19:44:35.471Z,100783.38
2023-03-21T19:47:22.314Z,100777.25
2023-03-21T19:53:17.940Z,100776.66
2023-03-21T19:56:16.496Z,100765.03
2023-03-21T19:59:08.213Z,100764.28
2023-03-21T20:02:02.399Z,100768.03
2023-03-21T20:04:56.257Z,100759.44
2023-03-21T20:07:42.914Z,100764.97
2023-03-21T20:10:31.415Z,100761.09
2023-03-21T20:13:18.003Z,100757.19
2023-03-21T20:16:04.862Z,100763.75
2023-03-21T20:18:52.620Z,100762.75
2023-03-21T20:21:54.129Z,100765.22
2023-03-21T20:24:44.453Z,100749.53
2023-03-21T20:27:32.720Z,100768.94
2023-03-21T20:30:20.184Z,100775.59
2023-03-21T20:33:07.086Z,100766.69
2023-03-21T20:36:37.722Z,100769.88
2023-03-21T20:39:05.875Z,100770.81
2023-03-21T20:41:54.999Z,100771.94
2023-03-21T20:45:00.663Z,100763.16
2023-03-21T20:47:48.541Z,100764.16
2023-03-21T20:50:39.353Z,100762.16
2023-03-21T20:53:26.975Z,100763.69
2023-03-21T20:56:14.918Z,100763.22
2023-03-21T20:59:16.270Z,100760.69
2023-03-21T21:02:08.848Z,100764.94
2023-03-21T21:05:24.335Z,100765.53
2023-03-21T21:08:03.078Z,100771.41
2023-03-21T21:11:27.706Z,100772.69
2023-03-21T21:13:56.914Z,100778.41
2023-03-21T21:16:44.838Z,100783.19
2023-03-21T21:19:34.001Z,100771.81
2023-03-21T21:22:21.286Z,100775.13
2023-03-21T21:25:08.956Z,100767.47
2023-03-21T21:28:11.867Z,100755.19
2023-03-21T21:30:59.706Z,100752.59
2023-03-21T21:33:50.105Z,100739.41
2023-03-21T21:36:38.360Z,100735.81
2023-03-21T21:39:26.629Z,100732.91
2023-03-21T21:42:13.287Z,100729.81
2023-03-21T21:44:59.974Z,100725.75
2023-03-21T21:47:47.053Z,100728.75
2023-03-21T21:50:33.748Z,100725.38
2023-03-21T21:53:22.923Z,100709.28
2023-03-21T21:56:10.653Z,100724.88
2023-03-21T21:59:01.935Z,100719.44
2023-03-21T22:01:48.590Z,100699.22
2023-03-21T22:04:35.336Z,100710.13
2023-03-21T22:07:22.214Z,100722.97
2023-03-21T22:10:10.769Z,100718.22
2023-03-21T22:12:57.284Z,100729.78
2023-03-21T22:15:44.047Z,100709.44
2023-03-21T22:18:30.760Z,100713.69
2023-03-21T22:21:17.634Z,100724.41
2023-03-21T22:24:04.656Z,100723.03
2023-03-21T22:27:02.043Z,100714.56
2023-03-21T22:29:49.007Z,100716.97
2023-03-21T22:32:37.520Z,100717.28
2023-03-21T22:35:24.247Z,100721.25
2023-03-21T22:38:11.024Z,100719.75
2023-03-21T22:40:58.293Z,100712.09
2023-03-21T22:43:46.088Z,100709.00
2023-03-21T22:46:34.700Z,100711.66
2023-03-21T22:49:21.824Z,100714.16
2023-03-21T22:52:08.333Z,100717.78
2023-03-21T22:54:55.183Z,100708.63
2023-03-21T22:57:41.760Z,100719.47
2023-03-21T23:00:29.784Z,100708.88
2023-03-21T23:03:17.361Z,100703.63
2023-03-21T23:06:04.150Z,100703.56
2023-03-21T23:08:51.336Z,100712.94
2023-03-21T23:11:38.092Z,100708.56
2023-03-21T23:14:24.644Z,100711.72
2023-03-21T23:17:12.844Z,100727.13
2023-03-21T23:20:01.469Z,100714.25
2023-03-21T23:22:48.334Z,100717.16
2023-03-21T23:25:38.668Z,100707.78
2023-03-21T23:28:27.049Z,100705.09
2023-03-21T23:31:16.765Z,100705.59
2023-03-21T23:34:05.072Z,100709.41
2023-03-21T23:36:51.755Z,100704.16
2023-03-21T23:39:39.470Z,100702.50
2023-03-21T23:42:27.136Z,100702.94
2023-03-21T23:45:13.758Z,100710.34
2023-03-21T23:48:00.913Z,100696.31
2023-03-21T23:50:49.302Z,100694.31
2023-03-21T23:53:37.540Z,100687.38
2023-03-21T23:56:26.228Z,100681.63
2023-03-21T23:59:13.071Z,100675.09
